Time;durP1;ratioP1;P1;durP2;ratioP2;P2;SDS_P1;SDS_P2;PMS_P1;PMS_P2;Temp;Humidity;BMP_temperature;BMP_pressure;BME280_temperature;BME280_humidity;BME280_pressure;Samples;Min_cycle;Max_cycle;Signal;HPM_P1;HPM_P2
2023/01/03 00:01:28;;;;;;;11.00;10.33;;;10.90;99.90;;;;;;6063627;23;20781;-75
2023/01/03 00:03:56;;;;;;;11.90;11.50;;;10.90;99.90;;;;;;6063299;23;20412;-76
2023/01/03 00:06:25;;;;;;;12.40;11.90;;;10.80;99.90;;;;;;6063288;23;20425;-76
2023/01/03 00:08:53;;;;;;;11.57;11.17;;;10.80;99.90;;;;;;6063263;23;20457;-75
2023/01/03 00:12:22;;;;;;;11.17;10.77;;;10.80;99.90;;;;;;6063665;23;20401;-75
2023/01/03 00:14:09;;;;;;;10.77;10.47;;;10.70;99.90;;;;;;6062794;23;20465;-75
2023/01/03 00:16:37;;;;;;;11.63;11.23;;;10.60;99.90;;;;;;6063543;23;20711;-76
2023/01/03 00:19:06;;;;;;;11.43;10.97;;;10.70;99.90;;;;;;6063459;23;20409;-76
2023/01/03 00:21:34;;;;;;;12.53;12.13;;;10.70;99.90;;;;;;6063361;23;20417;-75
2023/01/03 00:24:00;;;;;;;13.40;12.90;;;10.60;99.90;;;;;;6063503;23;20480;-75
2023/01/03 00:26:28;;;;;;;10.87;10.40;;;10.60;99.90;;;;;;6062673;23;20479;-76
2023/01/03 00:28:55;;;;;;;11.23;10.83;;;10.60;99.90;;;;;;6062458;23;20932;-75
2023/01/03 00:31:21;;;;;;;11.17;10.77;;;10.70;99.90;;;;;;6063305;23;20429;-77
2023/01/03 00:33:49;;;;;;;10.40;10.00;;;10.70;99.90;;;;;;6063298;23;20418;-74
2023/01/03 00:36:16;;;;;;;12.77;12.37;;;10.70;99.90;;;;;;6062965;23;20405;-75
2023/01/03 00:38:44;;;;;;;10.63;10.23;;;10.80;99.90;;;;;;6062847;23;20416;-76
2023/01/03 00:41:12;;;;;;;10.67;10.27;;;10.70;99.90;;;;;;6062623;23;20439;-75
2023/01/03 00:43:42;;;;;;;11.03;10.60;;;10.60;99.90;;;;;;6062561;23;20721;-75
2023/01/03 00:46:09;;;;;;;12.50;12.10;;;10.60;99.90;;;;;;6062422;23;20996;-74
2023/01/03 00:48:37;;;;;;;11.60;10.90;;;10.50;99.90;;;;;;6062908;23;20555;-74
2023/01/03 00:51:10;;;;;;;10.63;10.10;;;10.60;99.90;;;;;;6062971;23;20414;-74
2023/01/03 00:53:37;;;;;;;11.80;11.40;;;10.60;99.90;;;;;;6063454;23;20409;-75
2023/01/03 00:56:05;;;;;;;11.43;11.03;;;10.60;99.90;;;;;;6063203;23;20417;-74
2023/01/03 00:58:33;;;;;;;11.00;10.60;;;10.70;99.90;;;;;;6063267;23;20416;-75
2023/01/03 01:01:05;;;;;;;12.27;11.77;;;10.70;99.90;;;;;;6062345;23;20413;-75
2023/01/03 01:03:32;;;;;;;11.30;10.73;;;10.60;99.90;;;;;;6063106;23;20493;-74
2023/01/03 01:05:58;;;;;;;10.97;10.57;;;10.80;99.90;;;;;;6062472;23;20512;-77
2023/01/03 01:08:26;;;;;;;10.23;9.83;;;10.30;99.90;;;;;;6062006;23;20445;-76
2023/01/03 01:11:02;;;;;;;12.40;12.00;;;10.40;99.90;;;;;;6062107;23;20445;-74
2023/01/03 01:13:29;;;;;;;10.73;10.33;;;10.50;99.90;;;;;;6062321;23;20866;-76
2023/01/03 01:16:00;;;;;;;10.57;10.17;;;10.50;99.90;;;;;;6062447;23;20417;-74
2023/01/03 01:18:27;;;;;;;11.97;11.23;;;10.60;99.90;;;;;;6062487;23;20389;-74
2023/01/03 01:20:53;;;;;;;10.37;10.07;;;10.60;99.90;;;;;;6062384;23;20409;-75
2023/01/03 01:23:20;;;;;;;11.20;10.60;;;10.70;99.90;;;;;;6062776;23;20421;-75
2023/01/03 01:25:48;;;;;;;10.80;10.20;;;10.70;99.90;;;;;;6062235;23;20420;-75
2023/01/03 01:28:15;;;;;;;11.33;10.90;;;10.70;99.90;;;;;;6061986;23;20957;-76
2023/01/03 01:30:41;;;;;;;11.03;10.63;;;10.60;99.90;;;;;;6061923;23;21098;-75
2023/01/03 01:33:08;;;;;;;10.60;10.20;;;10.50;99.90;;;;;;6062372;23;20431;-75
2023/01/03 01:35:35;;;;;;;12.17;11.67;;;10.50;99.90;;;;;;6062786;23;20521;-75
2023/01/03 01:38:01;;;;;;;12.97;12.47;;;10.60;99.90;;;;;;6062550;23;20420;-75
2023/01/03 01:40:30;;;;;;;11.20;10.70;;;10.50;99.90;;;;;;6062512;23;20437;-75
2023/01/03 01:45:46;;;;;;;11.33;10.93;;;10.40;99.90;;;;;;6062285;23;20469;-75
2023/01/03 01:48:15;;;;;;;12.40;12.00;;;10.30;99.90;;;;;;6062387;23;20563;-74
2023/01/03 01:50:44;;;;;;;12.13;11.63;;;10.20;99.90;;;;;;6062626;23;20421;-75
2023/01/03 01:53:14;;;;;;;12.90;12.20;;;10.20;99.90;;;;;;6062169;23;20413;-75
2023/01/03 01:55:44;;;;;;;12.13;11.63;;;10.20;99.90;;;;;;6062360;23;20673;-75
2023/01/03 01:58:12;;;;;;;11.53;11.13;;;10.10;99.90;;;;;;6061945;23;20659;-75
2023/01/03 02:00:41;;;;;;;12.50;12.00;;;10.10;99.90;;;;;;6062073;23;20409;-74
2023/01/03 02:03:08;;;;;;;12.80;12.30;;;10.00;99.90;;;;;;6063729;23;20937;-74
2023/01/03 02:05:39;;;;;;;12.50;12.00;;;10.00;99.90;;;;;;6065011;23;20413;-75
2023/01/03 02:08:06;;;;;;;13.87;13.37;;;9.90;99.90;;;;;;6064664;23;20437;-75
2023/01/03 02:10:44;;;;;;;14.13;13.63;;;9.90;99.90;;;;;;6064513;23;20527;-75
2023/01/03 02:13:24;;;;;;;13.63;13.23;;;9.80;99.90;;;;;;6064257;23;20581;-75
2023/01/03 02:16:02;;;;;;;12.77;12.17;;;9.80;99.90;;;;;;6064722;23;20409;-74
2023/01/03 02:18:39;;;;;;;13.40;12.90;;;9.80;99.90;;;;;;6064601;23;20400;-76
2023/01/03 02:21:32;;;;;;;12.87;12.37;;;9.80;99.90;;;;;;6064928;23;20416;-74
2023/01/03 02:24:19;;;;;;;13.83;13.23;;;9.70;99.90;;;;;;6064845;23;20402;-74
2023/01/03 02:26:57;;;;;;;12.13;11.63;;;9.70;99.90;;;;;;6064603;23;20397;-75
2023/01/03 02:29:54;;;;;;;13.40;12.90;;;9.60;99.90;;;;;;6063987;23;20436;-75
2023/01/03 02:32:32;;;;;;;14.17;13.57;;;9.70;99.90;;;;;;6063268;23;20443;-75
2023/01/03 02:35:04;;;;;;;13.07;12.57;;;9.70;99.90;;;;;;6064019;23;20418;-75
2023/01/03 02:37:38;;;;;;;12.20;11.70;;;9.60;99.90;;;;;;6063881;23;20402;-76
2023/01/03 02:40:14;;;;;;;12.60;12.10;;;9.50;99.90;;;;;;6064524;23;20392;-75
2023/01/03 02:43:00;;;;;;;14.43;13.87;;;9.40;99.90;;;;;;6064150;23;20401;-76
2023/01/03 02:45:45;;;;;;;14.47;13.97;;;9.20;99.90;;;;;;6064109;23;20393;-75
2023/01/03 02:48:16;;;;;;;14.57;13.97;;;9.10;99.90;;;;;;6063972;23;20401;-76
2023/01/03 02:50:47;;;;;;;12.93;12.43;;;9.10;99.90;;;;;;6063576;23;20408;-76
2023/01/03 02:53:19;;;;;;;13.60;13.10;;;9.00;99.90;;;;;;6063663;23;20393;-76
2023/01/03 02:55:49;;;;;;;14.07;13.57;;;8.90;99.90;;;;;;6063973;23;20397;-76
2023/01/03 02:58:19;;;;;;;14.30;13.80;;;8.70;99.90;;;;;;6063854;23;20904;-76
2023/01/03 03:00:51;;;;;;;14.00;13.50;;;8.70;99.90;;;;;;6064132;23;20397;-75
2023/01/03 03:03:22;;;;;;;13.17;12.67;;;8.60;99.90;;;;;;6064459;23;20571;-76
2023/01/03 03:05:56;;;;;;;14.50;13.87;;;8.70;99.90;;;;;;6064174;23;20401;-75
2023/01/03 03:08:23;;;;;;;15.20;14.60;;;8.60;99.90;;;;;;6063948;23;20795;-77
2023/01/03 03:13:39;;;;;;;15.87;15.20;;;8.50;99.90;;;;;;6064068;23;20429;-74
2023/01/03 03:16:12;;;;;;;13.90;13.40;;;8.60;99.90;;;;;;6064275;23;20714;-75
2023/01/03 03:18:51;;;;;;;14.23;13.73;;;8.50;99.90;;;;;;6063678;23;20397;-74
2023/01/03 03:28:33;;;;;;;15.93;15.33;;;8.70;99.90;;;;;;6063570;23;20822;-74
2023/01/03 03:29:53;;;;;;;14.70;14.00;;;8.70;99.90;;;;;;6063413;23;20498;-73
2023/01/03 03:32:21;;;;;;;15.10;14.53;;;8.70;99.90;;;;;;6063934;23;20510;-74
2023/01/03 03:34:50;;;;;;;15.00;14.43;;;8.60;99.90;;;;;;6063413;23;20896;-74
2023/01/03 03:37:20;;;;;;;14.57;13.73;;;8.70;99.90;;;;;;6063594;23;20882;-74
2023/01/03 03:45:34;;;;;;;14.90;14.40;;;8.70;99.90;;;;;;6063401;23;20465;-76
2023/01/03 03:48:06;;;;;;;16.23;15.47;;;8.60;99.90;;;;;;6063071;23;20405;-75
2023/01/03 03:50:39;;;;;;;15.17;14.57;;;8.60;99.90;;;;;;6063303;23;20540;-75
2023/01/03 03:53:09;;;;;;;15.80;15.03;;;8.50;99.90;;;;;;6063749;23;20460;-74
2023/01/03 03:55:39;;;;;;;16.03;15.43;;;8.30;99.90;;;;;;6063375;23;20414;-74
2023/01/03 03:58:11;;;;;;;14.47;13.87;;;8.20;99.90;;;;;;6063126;23;20463;-74
2023/01/03 04:00:40;;;;;;;15.23;14.50;;;8.10;99.90;;;;;;6063430;23;20549;-75
2023/01/03 04:03:10;;;;;;;14.47;13.97;;;8.00;99.90;;;;;;6063234;23;20413;-75
2023/01/03 04:05:41;;;;;;;15.20;14.60;;;8.00;99.90;;;;;;6063159;23;20409;-75
2023/01/03 04:08:09;;;;;;;16.23;15.50;;;7.90;99.90;;;;;;6063094;23;20433;-74
2023/01/03 04:10:35;;;;;;;16.10;15.40;;;7.80;99.90;;;;;;6062778;23;20915;-75
2023/01/03 04:13:03;;;;;;;16.80;16.10;;;7.70;99.90;;;;;;6062687;23;20418;-75
2023/01/03 04:15:30;;;;;;;16.23;15.63;;;7.70;99.90;;;;;;6062501;23;20417;-74
2023/01/03 04:17:57;;;;;;;15.10;14.60;;;7.60;99.90;;;;;;6063195;23;20758;-74
2023/01/03 04:20:24;;;;;;;16.77;16.17;;;7.50;99.90;;;;;;6062808;23;20509;-74
2023/01/03 04:22:52;;;;;;;15.83;15.23;;;7.40;99.90;;;;;;6063101;23;20414;-75
2023/01/03 04:25:18;;;;;;;15.83;15.20;;;7.30;99.90;;;;;;6063004;23;20409;-74
2023/01/03 04:27:45;;;;;;;16.17;15.47;;;7.20;99.90;;;;;;6063016;23;20417;-76
2023/01/03 04:30:13;;;;;;;16.10;15.30;;;7.20;99.90;;;;;;6062511;23;20552;-74
2023/01/03 04:32:40;;;;;;;16.50;15.60;;;7.20;99.90;;;;;;6062827;23;20737;-74
2023/01/03 04:35:07;;;;;;;15.87;15.17;;;7.20;99.90;;;;;;6062812;23;20417;-73
2023/01/03 04:37:34;;;;;;;17.37;16.57;;;7.10;99.90;;;;;;6063148;23;20420;-73
2023/01/03 04:40:02;;;;;;;15.70;15.10;;;7.10;99.90;;;;;;6063057;23;20735;-75
2023/01/03 04:45:13;;;;;;;17.43;16.63;;;7.10;99.90;;;;;;6059598;23;20417;-74
2023/01/03 04:47:40;;;;;;;16.30;15.53;;;7.00;99.90;;;;;;6062222;23;20421;-74
2023/01/03 04:50:08;;;;;;;17.47;16.57;;;7.00;99.90;;;;;;6063764;23;20470;-75
2023/01/03 04:52:35;;;;;;;17.20;16.20;;;6.90;99.90;;;;;;6064076;23;20489;-75
2023/01/03 04:55:03;;;;;;;17.03;16.30;;;6.90;99.90;;;;;;6064122;23;20417;-75
2023/01/03 04:57:29;;;;;;;16.50;15.90;;;7.00;99.90;;;;;;6064068;23;20730;-75
2023/01/03 04:59:56;;;;;;;17.03;16.07;;;7.10;99.90;;;;;;6063771;23;20407;-75
2023/01/03 05:02:23;;;;;;;16.50;15.67;;;7.10;99.90;;;;;;6064220;23;20417;-75
2023/01/03 05:04:49;;;;;;;17.40;16.40;;;7.10;99.90;;;;;;6064288;23;20413;-75
2023/01/03 05:07:16;;;;;;;18.03;17.13;;;7.10;99.90;;;;;;6064060;23;20424;-74
2023/01/03 05:09:43;;;;;;;16.83;15.97;;;7.20;99.90;;;;;;6063454;23;20853;-74
2023/01/03 05:12:11;;;;;;;16.47;15.67;;;7.20;99.90;;;;;;6063956;23;20417;-75
2023/01/03 05:14:40;;;;;;;16.60;15.87;;;7.30;99.90;;;;;;6064005;23;20465;-75
2023/01/03 05:17:06;;;;;;;16.40;15.50;;;7.30;99.90;;;;;;6064142;23;20417;-75
2023/01/03 05:19:33;;;;;;;16.90;15.90;;;7.30;99.90;;;;;;6064034;23;20415;-75
2023/01/03 05:27:30;;;;;;;18.27;17.17;;;7.40;99.90;;;;;;6063922;23;20877;-75
2023/01/03 05:29:57;;;;;;;17.27;16.37;;;7.40;99.90;;;;;;6065030;23;20829;-75
2023/01/03 05:32:23;;;;;;;17.63;16.73;;;7.30;99.90;;;;;;6065052;23;20421;-76
2023/01/03 05:34:50;;;;;;;16.70;15.90;;;7.30;99.90;;;;;;6064313;23;20410;-76
2023/01/03 05:37:17;;;;;;;16.93;16.03;;;7.30;99.90;;;;;;6063886;23;20409;-76
2023/01/03 05:39:43;;;;;;;17.57;16.67;;;7.30;99.90;;;;;;6064540;23;20417;-74
2023/01/03 05:42:10;;;;;;;18.63;17.50;;;7.30;99.90;;;;;;6064356;23;20409;-75
2023/01/03 05:44:38;;;;;;;16.50;15.80;;;7.20;99.90;;;;;;6064340;23;20416;-75
2023/01/03 05:47:05;;;;;;;17.77;16.80;;;7.30;99.90;;;;;;6064188;23;20409;-76
2023/01/03 05:49:34;;;;;;;17.20;16.13;;;7.30;99.90;;;;;;6063794;23;20460;-75
2023/01/03 05:52:01;;;;;;;18.27;17.13;;;7.20;99.90;;;;;;6063837;23;20492;-75
2023/01/03 05:54:27;;;;;;;16.43;15.73;;;7.10;99.90;;;;;;6063672;23;20409;-75
2023/01/03 05:56:54;;;;;;;17.47;16.40;;;7.10;99.90;;;;;;6063573;23;20420;-75
2023/01/03 05:59:21;;;;;;;17.73;16.83;;;7.00;99.90;;;;;;6063902;23;20409;-76
2023/01/03 06:01:50;;;;;;;16.60;15.80;;;7.00;99.90;;;;;;6064216;23;20421;-75
2023/01/03 06:04:17;;;;;;;18.80;17.90;;;7.00;99.90;;;;;;6063646;23;20416;-74
2023/01/03 06:06:43;;;;;;;18.60;17.57;;;7.00;99.90;;;;;;6063309;23;20416;-75
2023/01/03 06:09:10;;;;;;;17.43;16.30;;;6.90;99.90;;;;;;6063205;23;20459;-75
2023/01/03 06:11:38;;;;;;;17.80;16.90;;;6.90;99.90;;;;;;6063868;23;20413;-75
2023/01/03 06:14:05;;;;;;;18.43;17.23;;;6.90;99.90;;;;;;6064127;23;20727;-75
2023/01/03 06:19:17;;;;;;;18.60;17.70;;;6.90;99.90;;;;;;6063610;23;20377;-75
2023/01/03 06:21:44;;;;;;;17.97;17.13;;;6.90;99.90;;;;;;6063695;23;20417;-75
2023/01/03 06:24:11;;;;;;;20.00;18.70;;;6.90;99.90;;;;;;6063499;23;20413;-76
2023/01/03 06:26:38;;;;;;;20.50;19.30;;;6.90;99.90;;;;;;6063715;23;20414;-75
2023/01/03 06:29:05;;;;;;;19.30;18.30;;;6.90;99.90;;;;;;6063873;23;20811;-76
2023/01/03 06:31:32;;;;;;;18.40;17.50;;;6.90;99.90;;;;;;6064160;23;20431;-76
2023/01/03 06:33:58;;;;;;;18.97;17.73;;;6.80;99.90;;;;;;6063608;23;20413;-76
2023/01/03 06:36:26;;;;;;;18.90;18.03;;;6.70;99.90;;;;;;6063338;23;20421;-76
2023/01/03 06:38:53;;;;;;;20.70;19.70;;;6.70;99.90;;;;;;6063245;23;20420;-76
2023/01/03 06:41:20;;;;;;;19.27;17.87;;;6.70;99.90;;;;;;6063878;23;20420;-76
2023/01/03 06:43:47;;;;;;;19.07;18.17;;;6.70;99.90;;;;;;6063852;23;20421;-76
2023/01/03 06:54:31;;;;;;;19.00;18.10;;;6.70;99.90;;;;;;6065660;23;20376;-76
2023/01/03 06:56:58;;;;;;;18.17;17.17;;;6.60;99.90;;;;;;6065450;23;20432;-76
2023/01/03 06:59:24;;;;;;;19.63;18.57;;;6.60;99.90;;;;;;6065793;23;20420;-74
2023/01/03 07:01:52;;;;;;;19.90;18.90;;;6.60;99.90;;;;;;6065728;23;20405;-74
2023/01/03 07:04:20;;;;;;;19.03;18.13;;;6.50;99.90;;;;;;6065839;23;20420;-74
2023/01/03 07:06:48;;;;;;;18.10;17.20;;;6.50;99.90;;;;;;6065436;23;20409;-76
2023/01/03 07:09:15;;;;;;;19.63;18.53;;;6.60;99.90;;;;;;6065103;23;20447;-76
2023/01/03 07:11:42;;;;;;;20.50;19.50;;;6.50;99.90;;;;;;6065101;23;20497;-75
2023/01/03 07:14:10;;;;;;;22.33;20.90;;;6.50;99.90;;;;;;6062323;23;20420;-75
2023/01/03 07:16:47;;;;;;;18.00;17.10;;;6.50;99.90;;;;;;6065240;23;20430;-73
2023/01/03 07:19:16;;;;;;;20.33;18.83;;;6.50;99.90;;;;;;6062682;23;20421;-76
2023/01/03 07:21:43;;;;;;;19.70;18.60;;;6.50;99.90;;;;;;6063707;23;20643;-75
2023/01/03 07:24:14;;;;;;;19.13;17.90;;;6.50;99.90;;;;;;6065061;23;20409;-80
2023/01/03 07:26:40;;;;;;;19.90;18.80;;;6.50;99.90;;;;;;6064929;23;20417;-76
2023/01/03 07:29:09;;;;;;;18.53;17.53;;;6.50;99.90;;;;;;6065149;23;20420;-76
2023/01/03 13:55:46;;;;;;;;;;;;;;;;;;;;;
2023/01/03 13:59:08;;;;;;;12.07;11.60;;;12.30;99.90;;;;;;6210548;23;20491;-85
2023/01/03 14:05:52;;;;;;;;;;;;;;;;;;;;;
2023/01/03 14:29:14;;;;;;;11.23;10.83;;;12.60;99.90;;;;;;5954726;23;20499;-87
2023/01/03 14:31:54;;;;;;;11.40;10.60;;;11.50;99.90;;;;;;6155074;23;20448;-87
2023/01/03 14:34:45;;;;;;;11.70;11.30;;;12.10;99.90;;;;;;6212703;23;20918;-88
2023/01/03 14:37:43;;;;;;;11.53;11.13;;;11.80;99.90;;;;;;6212628;23;20920;-87
2023/01/03 14:40:33;;;;;;;12.30;11.50;;;11.20;99.90;;;;;;6212518;23;20432;-86
2023/01/03 14:43:12;;;;;;;11.70;11.30;;;12.10;99.90;;;;;;6213496;23;20393;-87
2023/01/03 14:45:40;;;;;;;12.50;11.77;;;12.60;99.90;;;;;;6207391;23;20433;-79
2023/01/03 14:48:07;;;;;;;10.77;10.27;;;12.50;99.90;;;;;;6210090;23;20756;-79
2023/01/03 14:50:34;;;;;;;10.80;10.17;;;11.90;99.90;;;;;;6210494;23;20467;-79
2023/01/03 14:53:02;;;;;;;10.70;10.10;;;11.80;99.90;;;;;;6210349;23;20509;-79
2023/01/03 14:55:30;;;;;;;10.93;10.53;;;11.70;99.90;;;;;;6210611;23;20413;-78
2023/01/03 14:57:58;;;;;;;12.00;11.50;;;11.60;99.90;;;;;;6210635;23;20789;-79
2023/01/03 15:00:28;;;;;;;11.13;10.73;;;11.60;99.90;;;;;;6210302;23;20408;-80
2023/01/03 15:02:57;;;;;;;10.73;10.23;;;11.60;99.90;;;;;;6210426;23;20408;-79
2023/01/03 15:05:28;;;;;;;11.70;11.00;;;11.40;99.90;;;;;;6209674;23;20408;-79
2023/01/03 15:08:06;;;;;;;10.70;10.40;;;11.40;99.90;;;;;;6210008;23;20774;-78
2023/01/03 15:10:41;;;;;;;11.60;11.00;;;11.40;99.90;;;;;;6211686;23;20758;-79
2023/01/03 15:13:18;;;;;;;11.07;10.57;;;11.30;99.90;;;;;;6212557;23;20446;-78
2023/01/03 15:15:51;;;;;;;12.40;11.80;;;11.30;99.90;;;;;;6211270;23;20895;-78
2023/01/03 15:18:23;;;;;;;12.40;11.90;;;11.30;99.90;;;;;;6212415;23;20393;-80
2023/01/03 15:20:51;;;;;;;11.30;10.73;;;11.30;99.90;;;;;;6209964;23;20408;-80
2023/01/03 15:23:37;;;;;;;11.80;11.30;;;11.30;99.90;;;;;;6212492;23;20414;-79
2023/01/03 15:26:04;;;;;;;12.10;11.60;;;11.40;99.90;;;;;;6213224;23;20456;-81
2023/01/03 15:28:35;;;;;;;12.47;11.83;;;11.40;99.90;;;;;;6212450;23;20463;-80
2023/01/03 15:31:15;;;;;;;11.93;11.43;;;11.40;99.90;;;;;;6212773;23;20432;-79
2023/01/03 15:33:44;;;;;;;11.23;10.63;;;11.40;99.90;;;;;;6212469;23;20385;-78
2023/01/03 15:36:14;;;;;;;11.87;11.27;;;11.40;99.90;;;;;;6212422;23;20413;-79
2023/01/03 15:38:44;;;;;;;11.20;10.70;;;11.40;99.90;;;;;;6212422;23;20405;-78
2023/01/03 15:43:18;;;;;;;11.30;10.90;;;11.30;99.90;;;;;;6212911;23;20576;-79
2023/01/03 15:44:06;;;;;;;12.30;11.33;;;11.20;99.90;;;;;;6212008;23;20516;-78
2023/01/03 15:46:33;;;;;;;11.90;11.40;;;11.10;99.90;;;;;;6210087;23;20405;-79
2023/01/03 15:49:03;;;;;;;11.57;11.17;;;11.00;99.90;;;;;;6211780;23;20445;-80
2023/01/03 15:51:29;;;;;;;11.60;11.20;;;11.00;99.90;;;;;;6211878;23;21017;-79
2023/01/03 15:53:56;;;;;;;11.30;10.90;;;10.80;99.90;;;;;;6211464;23;20412;-79
2023/01/03 15:56:26;;;;;;;12.57;11.63;;;10.60;99.90;;;;;;6212405;23;20412;-77
2023/01/03 15:58:55;;;;;;;11.00;10.60;;;10.60;99.90;;;;;;6212308;23;20397;-79
2023/01/03 16:01:24;;;;;;;11.23;10.80;;;10.50;99.90;;;;;;6207920;23;20405;-78
2023/01/03 16:03:52;;;;;;;11.30;10.80;;;10.50;99.90;;;;;;6211676;23;20420;-79
2023/01/03 16:06:20;;;;;;;13.00;12.30;;;10.30;99.90;;;;;;6211849;23;20405;-79
2023/01/03 16:08:47;;;;;;;12.47;11.97;;;10.20;99.90;;;;;;6211798;23;20413;-78
2023/01/03 16:11:15;;;;;;;12.97;12.37;;;10.00;99.90;;;;;;6211763;23;20447;-79
2023/01/03 16:13:45;;;;;;;12.90;12.10;;;9.90;99.90;;;;;;6211512;23;20412;-78
2023/01/03 16:16:14;;;;;;;12.93;12.30;;;9.80;99.90;;;;;;6211507;23;20862;-79
2023/01/03 16:18:44;;;;;;;14.33;13.63;;;9.70;99.90;;;;;;6211661;23;20420;-78
2023/01/03 16:21:12;;;;;;;14.37;13.60;;;9.50;99.90;;;;;;6211566;23;20809;-80
2023/01/03 16:23:40;;;;;;;14.30;13.40;;;9.50;99.90;;;;;;6211434;23;20408;-79
2023/01/03 16:26:07;;;;;;;13.47;12.83;;;9.40;99.90;;;;;;6211607;23;20439;-82
2023/01/03 16:28:34;;;;;;;13.73;13.10;;;9.30;99.90;;;;;;6214097;23;20419;-80
2023/01/03 16:31:03;;;;;;;15.00;14.20;;;9.30;99.90;;;;;;6213721;23;20428;-81
2023/01/03 16:33:33;;;;;;;13.67;13.07;;;9.20;99.90;;;;;;6212112;23;20413;-82
2023/01/03 16:36:00;;;;;;;14.40;13.70;;;9.10;99.90;;;;;;6212224;23;20873;-85
2023/01/03 16:38:27;;;;;;;15.00;14.00;;;9.00;99.90;;;;;;6213079;23;20443;-83
2023/01/03 16:40:56;;;;;;;15.00;14.13;;;9.00;99.90;;;;;;6215596;23;20424;-84
2023/01/03 16:43:24;;;;;;;15.43;14.60;;;8.80;99.90;;;;;;6212139;23;20409;-85
2023/01/03 16:45:51;;;;;;;15.90;15.07;;;8.80;99.90;;;;;;6212599;23;20467;-83
2023/01/03 16:48:21;;;;;;;16.60;15.13;;;8.70;99.90;;;;;;6213253;23;20437;-85
2023/01/03 16:50:51;;;;;;;14.03;13.37;;;8.70;99.90;;;;;;6212409;23;20448;-87
2023/01/03 16:53:25;;;;;;;16.40;15.47;;;8.60;99.90;;;;;;6211783;23;20721;-83
2023/01/03 16:55:55;;;;;;;16.27;15.40;;;8.40;99.90;;;;;;6210208;23;20433;-84
2023/01/03 16:58:24;;;;;;;15.50;14.57;;;8.30;99.90;;;;;;6212292;23;20408;-83
2023/01/03 17:00:51;;;;;;;15.37;14.57;;;8.20;99.90;;;;;;6211771;23;20710;-83
2023/01/03 17:03:18;;;;;;;16.13;14.93;;;8.00;99.90;;;;;;6212590;23;20404;-83
2023/01/03 17:05:46;;;;;;;15.97;15.23;;;7.90;99.90;;;;;;6212076;23;20409;-84
2023/01/03 17:08:19;;;;;;;17.70;16.63;;;7.80;99.90;;;;;;6211775;23;20409;-83
2023/01/03 17:10:49;;;;;;;15.97;15.07;;;7.80;99.90;;;;;;6212163;23;20393;-83
2023/01/03 17:13:29;;;;;;;16.33;15.43;;;7.70;99.90;;;;;;6212597;23;20420;-84
2023/01/03 17:15:57;;;;;;;16.87;15.77;;;7.60;99.90;;;;;;6212136;23;20415;-84
2023/01/03 17:18:27;;;;;;;17.30;16.17;;;7.50;99.90;;;;;;6214115;23;20527;-84
2023/01/03 17:20:57;;;;;;;18.30;17.17;;;7.50;99.90;;;;;;6212742;23;20427;-84
2023/01/03 17:23:24;;;;;;;18.70;17.33;;;7.40;99.90;;;;;;6212853;23;20747;-84
2023/01/03 17:25:51;;;;;;;17.67;16.43;;;7.20;99.90;;;;;;6213698;23;20416;-84
2023/01/03 17:28:18;;;;;;;17.00;15.87;;;7.10;99.90;;;;;;6212847;23;20409;-83
2023/01/03 17:30:49;;;;;;;17.47;16.17;;;7.00;99.90;;;;;;6212200;23;20476;-83
2023/01/03 17:33:16;;;;;;;17.37;16.40;;;6.90;99.90;;;;;;6213214;23;20396;-84
2023/01/03 17:35:44;;;;;;;17.37;16.27;;;6.80;99.90;;;;;;6211949;23;20404;-82
2023/01/03 17:38:13;;;;;;;17.60;16.60;;;6.80;99.90;;;;;;6213009;23;20408;-83
2023/01/03 17:40:43;;;;;;;16.67;15.80;;;6.80;99.90;;;;;;6212699;23;20405;-84
2023/01/03 17:43:19;;;;;;;17.67;16.60;;;6.70;99.90;;;;;;6212686;23;20409;-84
2023/01/03 17:51:16;;;;;;;16.43;15.37;;;6.70;99.90;;;;;;6211609;23;20791;-82
2023/01/03 17:53:44;;;;;;;18.20;17.20;;;6.70;99.90;;;;;;6211470;23;20778;-82
2023/01/03 17:56:14;;;;;;;17.33;16.43;;;6.60;99.90;;;;;;6212306;23;21084;-82
2023/01/03 17:58:41;;;;;;;15.90;15.10;;;6.60;99.90;;;;;;6211781;23;20470;-83
2023/01/03 18:01:11;;;;;;;15.77;14.70;;;6.60;99.90;;;;;;6211832;23;20400;-84
2023/01/03 18:03:38;;;;;;;15.63;14.83;;;6.50;99.90;;;;;;6212963;23;20416;-83
2023/01/03 18:06:10;;;;;;;16.77;15.60;;;6.50;99.90;;;;;;6209130;23;20405;-84
2023/01/03 18:08:37;;;;;;;17.03;16.10;;;6.60;99.90;;;;;;6211092;23;20459;-83
2023/01/03 18:11:06;;;;;;;18.00;16.80;;;6.60;99.90;;;;;;6212298;23;21014;-84
2023/01/03 18:13:35;;;;;;;18.60;17.40;;;6.60;99.90;;;;;;6212696;23;20419;-85
2023/01/03 18:16:03;;;;;;;18.23;17.13;;;6.60;99.90;;;;;;6211863;23;20457;-84
2023/01/03 18:18:32;;;;;;;18.90;17.60;;;6.70;99.90;;;;;;6211460;23;20420;-85
2023/01/03 18:20:59;;;;;;;18.47;17.07;;;6.70;99.90;;;;;;6211670;23;20428;-84
2023/01/03 18:23:28;;;;;;;19.67;18.47;;;6.60;99.90;;;;;;6211021;23;20767;-86
2023/01/03 18:25:57;;;;;;;20.53;19.13;;;6.60;99.90;;;;;;6210862;23;20417;-85
2023/01/03 18:28:26;;;;;;;21.03;19.70;;;6.60;99.90;;;;;;6210878;23;20440;-87
2023/01/03 18:30:53;;;;;;;19.87;18.47;;;6.60;99.90;;;;;;6214895;23;20405;-87
2023/01/03 18:33:19;;;;;;;22.13;20.10;;;6.50;99.90;;;;;;6214250;23;20408;-85
2023/01/03 18:35:48;;;;;;;20.53;19.17;;;6.50;99.90;;;;;;6211802;23;20408;-84
2023/01/03 18:38:24;;;;;;;19.60;18.40;;;6.40;99.90;;;;;;6211844;23;20416;-85
2023/01/03 18:40:51;;;;;;;21.07;19.57;;;6.30;99.90;;;;;;6212661;23;20768;-84
2023/01/03 18:43:19;;;;;;;21.17;19.50;;;6.30;99.90;;;;;;6211990;23;20492;-84
2023/01/03 18:45:46;;;;;;;21.10;19.80;;;6.30;99.90;;;;;;6212981;23;20959;-85
2023/01/03 18:48:14;;;;;;;20.40;19.10;;;6.20;99.90;;;;;;6214072;23;21063;-84
2023/01/03 18:50:41;;;;;;;20.27;18.83;;;6.30;99.90;;;;;;6213565;23;20716;-84
2023/01/03 18:53:15;;;;;;;20.90;19.30;;;6.30;99.90;;;;;;6212265;23;20401;-84
2023/01/03 18:55:42;;;;;;;22.23;20.47;;;6.30;99.90;;;;;;6212484;23;20389;-85
2023/01/03 18:58:17;;;;;;;23.50;21.80;;;6.30;99.90;;;;;;6213452;23;20447;-85
2023/01/03 19:00:45;;;;;;;21.73;19.53;;;6.30;99.90;;;;;;6217997;23;20424;-85
2023/01/03 19:03:19;;;;;;;21.83;19.93;;;6.20;99.90;;;;;;6213361;23;20456;-85
2023/01/03 19:05:46;;;;;;;20.00;18.30;;;6.20;99.90;;;;;;6213883;23;20414;-84
2023/01/03 19:08:16;;;;;;;23.97;22.07;;;6.20;99.90;;;;;;6213501;23;20466;-84
2023/01/03 19:10:43;;;;;;;21.90;20.10;;;6.20;99.90;;;;;;6213678;23;20408;-86
2023/01/03 19:13:24;;;;;;;22.17;20.10;;;6.10;99.90;;;;;;6212141;23;20401;-86
2023/01/03 19:15:51;;;;;;;23.60;21.90;;;6.10;99.90;;;;;;6214227;23;20459;-86
2023/01/03 19:18:17;;;;;;;24.37;22.27;;;6.00;99.90;;;;;;6214813;23;20420;-87
2023/01/03 19:20:44;;;;;;;23.43;21.33;;;6.00;99.90;;;;;;6213717;23;20712;-87
2023/01/03 19:23:19;;;;;;;22.90;20.97;;;6.00;99.90;;;;;;6213997;23;20452;-87
2023/01/03 19:25:45;;;;;;;22.30;20.60;;;6.00;99.90;;;;;;6214288;23;20721;-85
2023/01/03 19:28:12;;;;;;;24.00;22.03;;;5.90;99.90;;;;;;6213178;23;20417;-86
2023/01/03 19:30:43;;;;;;;21.20;19.70;;;5.90;99.90;;;;;;6213958;23;20876;-86
2023/01/03 19:33:12;;;;;;;25.73;23.87;;;5.90;99.90;;;;;;6213924;23;20455;-87
2023/01/03 19:35:39;;;;;;;22.17;20.50;;;5.90;99.90;;;;;;6213514;23;20405;-86
2023/01/03 19:38:08;;;;;;;23.50;21.80;;;5.80;99.90;;;;;;6213708;23;20471;-85
2023/01/03 19:40:38;;;;;;;24.23;22.30;;;5.70;99.90;;;;;;6213091;23;20415;-87
2023/01/03 19:43:05;;;;;;;23.27;21.53;;;5.70;99.90;;;;;;6213752;23;20887;-87
2023/01/03 19:45:34;;;;;;;25.47;22.97;;;5.70;99.90;;;;;;6216227;23;20444;-86
2023/01/03 19:48:03;;;;;;;23.37;21.37;;;5.70;99.90;;;;;;6213866;23;20436;-87
2023/01/03 19:50:31;;;;;;;22.43;21.03;;;5.70;99.90;;;;;;6213820;23;20408;-88
2023/01/03 19:53:00;;;;;;;23.17;21.30;;;5.70;99.90;;;;;;6214898;23;20405;-86
2023/01/03 19:55:29;;;;;;;22.20;20.60;;;5.60;99.90;;;;;;6213819;23;20833;-85
2023/01/03 19:58:00;;;;;;;21.87;20.40;;;5.60;99.90;;;;;;6213096;23;20409;-86
2023/01/03 20:00:31;;;;;;;23.93;22.23;;;5.60;99.90;;;;;;6213611;23;20439;-85
2023/01/03 20:03:00;;;;;;;22.00;20.50;;;5.60;99.90;;;;;;6213669;23;20528;-86
2023/01/03 20:05:33;;;;;;;24.00;22.07;;;5.60;99.90;;;;;;6213887;23;20405;-88
2023/01/03 20:08:01;;;;;;;22.90;21.07;;;5.60;99.90;;;;;;6213212;23;20402;-86
2023/01/03 20:10:34;;;;;;;22.27;20.43;;;5.50;99.90;;;;;;6213612;23;20480;-87
2023/01/03 20:13:03;;;;;;;22.63;21.23;;;5.60;99.90;;;;;;6213932;23;20470;-88
2023/01/03 20:15:37;;;;;;;22.17;20.67;;;5.50;99.90;;;;;;6214714;23;20511;-90
2023/01/03 20:18:23;;;;;;;23.10;21.50;;;5.50;99.90;;;;;;6215626;23;20773;-91
2023/01/03 20:20:51;;;;;;;22.50;20.70;;;5.50;99.90;;;;;;6216550;23;20471;-90